Time;durP1;ratioP1;P1;durP2;ratioP2;P2;SDS_P1;SDS_P2;PMS_P1;PMS_P2;Temp;Humidity;BMP_temperature;BMP_pressure;BME280_temperature;BME280_humidity;BME280_pressure;Samples;Min_cycle;Max_cycle;Signal;HPM_P1;HPM_P2
2023/07/03 00:07:22;;;;;;;19.55;4.63;;;17.80;1.00;;;;;;19795963;29;20528;-40
2023/07/03 00:17:24;;;;;;;16.70;4.10;;;17.80;1.00;;;;;;19798632;29;20051;-40
2023/07/03 00:27:25;;;;;;;16.65;3.35;;;17.60;1.00;;;;;;19794035;29;20192;-40
2023/07/03 00:37:27;;;;;;;13.45;3.38;;;17.60;1.00;;;;;;19797980;29;20131;-39
2023/07/03 00:47:29;;;;;;;20.00;4.75;;;17.60;1.00;;;;;;19806705;29;20130;-40
2023/07/03 00:57:31;;;;;;;18.98;3.65;;;17.50;1.00;;;;;;19805553;29;20138;-39
2023/07/03 01:07:35;;;;;;;21.95;4.13;;;17.40;1.00;;;;;;19788505;29;20526;-40
2023/07/03 01:17:40;;;;;;;20.88;4.45;;;17.50;1.00;;;;;;19795953;29;20054;-39
2023/07/03 01:27:45;;;;;;;20.00;4.22;;;17.40;1.00;;;;;;19790965;29;20042;-39
2023/07/03 01:37:49;;;;;;;21.30;3.83;;;17.30;1.00;;;;;;19788234;29;20050;-39
2023/07/03 01:47:50;;;;;;;18.27;3.97;;;17.30;1.00;;;;;;19791236;29;20046;-39
2023/07/03 01:58:06;;;;;;;24.73;4.75;;;17.20;1.00;;;;;;19798170;29;20050;-39
2023/07/03 02:08:09;;;;;;;19.77;5.70;;;17.20;1.00;;;;;;19789877;29;20302;-39
2023/07/03 02:18:17;;;;;;;20.75;3.80;;;17.20;1.00;;;;;;19792299;29;20054;-40
2023/07/03 02:28:18;;;;;;;14.75;3.50;;;17.10;1.00;;;;;;19786045;29;20396;-40
2023/07/03 02:38:20;;;;;;;12.68;2.92;;;17.10;1.00;;;;;;19786319;29;20132;-39
2023/07/03 02:48:21;;;;;;;14.98;3.67;;;17.20;1.00;;;;;;19784557;29;20043;-40
2023/07/03 02:58:23;;;;;;;12.05;2.88;;;17.20;1.00;;;;;;19786465;29;20054;-40
2023/07/03 03:08:24;;;;;;;15.82;3.60;;;17.00;1.00;;;;;;19787357;29;21825;-40
2023/07/03 03:18:25;;;;;;;9.00;2.35;;;16.90;1.00;;;;;;19774480;29;20143;-40
2023/07/03 03:28:27;;;;;;;8.68;1.80;;;17.00;1.00;;;;;;19786417;29;20070;-40
2023/07/03 03:38:29;;;;;;;7.05;1.58;;;16.80;1.00;;;;;;19784913;29;20055;-40
2023/07/03 03:48:31;;;;;;;6.07;1.33;;;16.70;1.00;;;;;;19785822;29;20411;-39
2023/07/03 03:58:32;;;;;;;5.53;1.30;;;16.60;1.00;;;;;;19781969;29;20074;-39
2023/07/03 04:08:33;;;;;;;5.63;1.52;;;16.60;1.00;;;;;;19791038;29;20051;-40
2023/07/03 04:18:35;;;;;;;5.95;1.30;;;16.60;1.00;;;;;;19793390;29;20050;-40
2023/07/03 04:28:37;;;;;;;9.23;1.40;;;16.50;1.00;;;;;;19797858;29;20062;-39
2023/07/03 04:38:41;;;;;;;6.03;1.30;;;16.70;1.00;;;;;;19788483;29;20106;-39
2023/07/03 04:48:43;;;;;;;10.02;1.65;;;16.60;1.00;;;;;;19797532;29;20046;-40
2023/07/03 04:58:45;;;;;;;3.88;1.05;;;16.60;1.00;;;;;;19788394;29;20050;-40
2023/07/03 05:08:46;;;;;;;9.00;1.60;;;16.70;1.00;;;;;;19784065;29;20042;-40
2023/07/03 05:18:48;;;;;;;8.02;1.67;;;16.70;1.00;;;;;;19774577;29;20551;-40
2023/07/03 05:28:49;;;;;;;6.80;1.35;;;16.70;1.00;;;;;;19747341;29;20510;-40
2023/07/03 05:38:50;;;;;;;9.13;1.55;;;16.70;1.00;;;;;;19794368;29;20530;-40
2023/07/03 05:48:51;;;;;;;9.75;1.55;;;16.60;1.00;;;;;;19783079;29;20583;-40
2023/07/03 05:59:12;;;;;;;7.80;1.73;;;16.70;1.00;;;;;;19779303;29;20191;-40
2023/07/03 06:09:14;;;;;;;9.15;1.52;;;16.90;1.00;;;;;;19813886;29;20051;-40
2023/07/03 06:19:17;;;;;;;5.88;2.05;;;16.90;1.00;;;;;;19755925;29;20459;-40
2023/07/03 06:29:27;;;;;;;7.22;1.88;;;17.10;1.00;;;;;;19855995;29;20104;-39
2023/07/03 06:39:36;;;;;;;6.05;1.85;;;17.30;1.00;;;;;;19843424;29;20075;-39
2023/07/03 06:49:57;;;;;;;6.25;1.23;;;17.40;1.00;;;;;;19852758;29;20058;-40
2023/07/03 07:00:19;;;;;;;5.80;1.30;;;17.60;1.00;;;;;;19846011;29;20042;-39
2023/07/03 07:10:40;;;;;;;7.93;1.85;;;17.80;1.00;;;;;;19854573;29;20065;-39
2023/07/03 07:21:01;;;;;;;7.18;1.65;;;18.10;1.00;;;;;;19851091;29;20462;-40
2023/07/03 07:31:24;;;;;;;7.60;1.90;;;18.10;1.00;;;;;;19855250;29;20058;-39
2023/07/03 07:41:46;;;;;;;10.48;1.48;;;18.30;1.00;;;;;;19843661;29;20051;-40
2023/07/03 07:52:07;;;;;;;9.15;1.70;;;18.40;1.00;;;;;;19860540;29;20592;-40
2023/07/03 08:02:28;;;;;;;6.03;1.25;;;18.40;1.00;;;;;;19854941;29;20035;-40
2023/07/03 08:12:52;;;;;;;10.18;1.70;;;18.30;1.00;;;;;;19844467;29;20116;-40
2023/07/03 08:23:13;;;;;;;5.05;1.05;;;18.50;1.00;;;;;;19857942;29;20043;-40
2023/07/03 08:33:34;;;;;;;7.47;1.67;;;18.50;1.00;;;;;;19854756;29;20059;-40
2023/07/03 08:43:58;;;;;;;5.35;1.23;;;18.40;1.00;;;;;;19847636;29;20124;-40
2023/07/03 08:54:24;;;;;;;9.90;2.05;;;18.60;1.00;;;;;;19834919;29;20144;-41
2023/07/03 09:04:52;;;;;;;5.40;1.67;;;18.40;1.00;;;;;;19838583;29;20139;-39
2023/07/03 09:15:32;;;;;;;5.40;1.63;;;19.00;1.00;;;;;;19856337;29;20398;-40
2023/07/03 09:26:01;;;;;;;7.72;1.33;;;19.30;1.00;;;;;;19830103;29;20195;-39
2023/07/03 09:36:26;;;;;;;7.50;1.40;;;19.00;1.00;;;;;;19838986;29;20374;-40
2023/07/03 09:46:48;;;;;;;12.73;1.60;;;18.70;1.00;;;;;;19855025;29;20034;-40
2023/07/03 09:57:38;;;;;;;6.35;1.30;;;18.70;1.00;;;;;;19835955;29;20161;-41
2023/07/03 10:08:01;;;;;;;7.80;1.90;;;18.60;1.00;;;;;;19842471;29;20123;-40
2023/07/03 10:18:37;;;;;;;6.82;1.70;;;18.50;1.00;;;;;;19832022;29;20047;-40
2023/07/03 10:29:05;;;;;;;7.75;1.95;;;18.50;1.00;;;;;;19851341;29;20499;-40
2023/07/03 10:39:37;;;;;;;4.97;1.52;;;19.40;1.00;;;;;;19845620;29;20158;-40
2023/07/03 10:49:58;;;;;;;8.02;1.60;;;19.50;1.00;;;;;;19847938;29;20071;-40
2023/07/03 11:00:39;;;;;;;5.55;1.55;;;19.70;1.00;;;;;;19844981;29;20107;-40
2023/07/03 11:11:19;;;;;;;6.95;2.15;;;19.40;1.00;;;;;;19842529;29;20139;-40
2023/07/03 11:22:06;;;;;;;5.50;1.48;;;19.50;1.00;;;;;;19856246;29;20084;-40
2023/07/03 11:32:27;;;;;;;7.25;1.90;;;19.10;1.00;;;;;;19828501;29;20137;-40
2023/07/03 11:42:48;;;;;;;6.03;1.70;;;18.90;1.00;;;;;;19843674;29;20046;-40
2023/07/03 11:53:10;;;;;;;4.78;1.40;;;19.90;1.00;;;;;;19843820;29;20046;-40
2023/07/03 12:04:05;;;;;;;6.80;1.08;;;20.30;1.00;;;;;;19841969;29;20641;-41
2023/07/03 12:14:44;;;;;;;5.65;1.15;;;19.70;1.00;;;;;;19809814;29;20050;-42
2023/07/03 12:25:11;;;;;;;5.68;2.90;;;20.20;1.00;;;;;;19832516;29;20544;-41
2023/07/03 12:35:35;;;;;;;5.07;1.10;;;19.30;1.00;;;;;;19837906;29;20050;-41
2023/07/03 12:45:57;;;;;;;3.70;0.82;;;18.90;1.00;;;;;;19842884;29;20222;-42
2023/07/03 12:56:18;;;;;;;4.53;0.90;;;18.70;1.00;;;;;;19860853;29;20335;-42
2023/07/03 13:06:43;;;;;;;4.57;0.80;;;19.80;1.00;;;;;;19846729;29;20129;-41
2023/07/03 13:17:07;;;;;;;3.95;1.30;;;19.40;1.00;;;;;;19845729;29;20542;-42
2023/07/03 13:27:29;;;;;;;4.47;1.80;;;19.20;1.00;;;;;;19844503;29;20295;-41
2023/07/03 13:37:50;;;;;;;4.93;1.50;;;18.70;1.00;;;;;;19847097;29;20368;-41
2023/07/03 13:48:10;;;;;;;6.93;1.05;;;18.30;1.00;;;;;;19849620;29;21690;-41
2023/07/03 13:58:31;;;;;;;7.20;1.38;;;18.60;1.00;;;;;;19852576;29;20139;-42
2023/07/03 14:08:53;;;;;;;4.60;0.82;;;19.00;1.00;;;;;;19853501;29;20092;-41
2023/07/03 14:19:14;;;;;;;5.57;1.20;;;18.90;1.00;;;;;;19840121;29;20078;-42
2023/07/03 14:29:35;;;;;;;8.43;1.40;;;19.30;1.00;;;;;;19846131;29;20077;-39
2023/07/03 14:39:59;;;;;;;7.97;1.60;;;19.00;1.00;;;;;;19840876;29;20173;-40
2023/07/03 14:50:20;;;;;;;5.55;1.52;;;18.60;1.00;;;;;;19827683;29;20043;-39
2023/07/03 15:00:41;;;;;;;4.68;1.35;;;18.70;1.00;;;;;;19842800;29;20324;-40
2023/07/03 15:11:03;;;;;;;8.70;1.58;;;18.50;1.00;;;;;;19842973;29;20147;-39
2023/07/03 15:21:24;;;;;;;8.40;1.70;;;18.70;1.00;;;;;;19835637;29;20582;-40
2023/07/03 15:31:45;;;;;;;6.13;1.67;;;19.20;1.00;;;;;;19832085;29;20117;-40
2023/07/03 15:42:06;;;;;;;7.00;1.67;;;19.20;1.00;;;;;;19826841;29;20162;-40
2023/07/03 15:52:27;;;;;;;3.80;1.27;;;19.70;1.00;;;;;;19822106;29;20281;-40
2023/07/03 16:02:48;;;;;;;7.07;2.05;;;20.10;1.00;;;;;;19822965;29;20176;-40
2023/07/03 16:13:09;;;;;;;5.07;1.52;;;20.30;1.00;;;;;;19850577;29;20092;-40
2023/07/03 16:23:32;;;;;;;7.15;1.73;;;20.20;1.00;;;;;;19861179;29;20039;-40
2023/07/03 16:33:55;;;;;;;9.02;2.42;;;20.00;1.00;;;;;;19870514;29;20096;-40
2023/07/03 16:44:16;;;;;;;7.45;2.38;;;20.00;1.00;;;;;;19839864;29;20271;-40
2023/07/03 16:54:37;;;;;;;9.63;2.53;;;19.90;1.00;;;;;;19804258;29;20042;-40
2023/07/03 17:04:58;;;;;;;6.28;2.35;;;19.90;1.00;;;;;;19843388;29;20230;-40
2023/07/03 17:15:21;;;;;;;6.63;2.08;;;20.00;1.00;;;;;;19840347;29;20135;-40
2023/07/03 17:25:44;;;;;;;6.60;2.08;;;19.90;1.00;;;;;;19816827;29;20496;-40
2023/07/03 17:36:05;;;;;;;4.50;2.15;;;19.90;1.00;;;;;;19784519;29;20051;-43
2023/07/03 17:46:26;;;;;;;8.32;2.38;;;19.80;1.00;;;;;;19793241;29;20116;-42
2023/07/03 17:56:28;;;;;;;11.48;2.38;;;19.80;1.00;;;;;;19810721;29;20047;-42
2023/07/03 18:06:29;;;;;;;9.68;2.33;;;19.70;1.00;;;;;;19801063;29;20210;-41
2023/07/03 18:26:33;;;;;;;15.75;3.05;;;19.40;1.00;;;;;;19850097;29;20058;-41
2023/07/03 18:36:39;;;;;;;14.10;3.10;;;19.10;1.00;;;;;;19837369;29;20479;-42
2023/07/03 18:46:40;;;;;;;17.02;3.08;;;18.90;1.00;;;;;;19854991;29;20054;-42
2023/07/03 18:56:42;;;;;;;12.68;2.40;;;18.60;1.00;;;;;;19841496;29;20066;-41
2023/07/03 19:06:44;;;;;;;9.90;2.50;;;18.10;1.00;;;;;;19818385;29;20062;-42
2023/07/03 19:16:46;;;;;;;16.42;3.10;;;17.40;1.00;;;;;;19822431;29;20519;-42
2023/07/03 19:26:56;;;;;;;12.10;3.65;;;16.60;1.00;;;;;;19855441;29;20083;-42
2023/07/03 19:37:05;;;;;;;5.65;1.83;;;15.60;1.00;;;;;;19853065;29;20045;-42
2023/07/03 19:47:06;;;;;;;8.30;1.70;;;15.00;25.00;;;;;;19842468;29;20087;-43
2023/07/03 19:57:10;;;;;;;6.43;1.60;;;14.70;91.00;;;;;;19857567;29;21973;-43
2023/07/03 20:07:31;;;;;;;14.05;2.50;;;14.70;99.90;;;;;;19833558;29;20043;-42
2023/07/03 20:17:32;;;;;;;9.68;1.83;;;14.90;99.90;;;;;;19844454;29;20082;-42
2023/07/03 20:27:54;;;;;;;4.07;1.20;;;14.80;96.90;;;;;;19786678;29;20079;-42
2023/07/03 20:38:02;;;;;;;5.75;1.23;;;14.40;96.20;;;;;;19786727;29;20067;-41
2023/07/03 20:48:04;;;;;;;7.50;2.45;;;14.00;93.00;;;;;;19778860;29;20059;-42
2023/07/03 20:58:05;;;;;;;10.95;2.55;;;14.00;99.90;;;;;;19796854;29;20416;-41
2023/07/03 21:08:06;;;;;;;17.48;3.38;;;14.10;99.90;;;;;;19807923;29;20074;-41
2023/07/03 21:18:08;;;;;;;6.30;1.83;;;14.50;99.90;;;;;;19799370;29;20546;-42
2023/07/03 21:28:09;;;;;;;5.53;1.10;;;14.40;99.90;;;;;;19797407;29;20408;-41
2023/07/03 21:38:10;;;;;;;4.85;1.60;;;14.10;75.10;;;;;;19788070;29;20051;-41
2023/07/03 21:48:16;;;;;;;7.28;1.65;;;14.00;96.70;;;;;;19775384;29;20645;-41
2023/07/03 21:58:18;;;;;;;5.35;1.45;;;14.10;91.90;;;;;;19807102;29;20070;-42
2023/07/03 22:08:20;;;;;;;8.75;1.92;;;14.20;59.70;;;;;;19788306;29;20050;-41
2023/07/03 22:18:21;;;;;;;6.50;1.95;;;14.00;96.20;;;;;;19794491;29;20043;-41
2023/07/03 22:28:23;;;;;;;6.90;1.80;;;14.10;99.90;;;;;;19791363;29;20043;-41
2023/07/03 22:38:24;;;;;;;8.95;2.55;;;14.30;90.10;;;;;;19781653;29;20048;-41
2023/07/03 22:48:25;;;;;;;8.45;1.83;;;14.40;83.90;;;;;;19795742;29;20050;-42
2023/07/03 22:58:26;;;;;;;5.88;2.08;;;14.40;99.90;;;;;;19789189;29;20523;-42
2023/07/03 23:08:27;;;;;;;17.50;3.03;;;14.50;99.90;;;;;;19794102;29;20070;-42
2023/07/03 23:18:28;;;;;;;11.52;3.00;;;14.50;99.90;;;;;;19789180;29;20058;-41
2023/07/03 23:28:33;;;;;;;11.48;2.80;;;14.40;99.90;;;;;;19789166;29;20059;-41
2023/07/03 23:38:35;;;;;;;12.90;3.28;;;14.50;99.90;;;;;;19787986;29;20479;-41
2023/07/03 23:48:37;;;;;;;14.05;3.03;;;14.50;99.90;;;;;;19789883;29;20074;-41
2023/07/03 23:58:40;;;;;;;12.93;4.43;;;14.40;99.90;;;;;;19785899;29;20049;-42
